Time;durP1;ratioP1;P1;durP2;ratioP2;P2;SDS_P1;SDS_P2;PMS_P1;PMS_P2;Temp;Humidity;BMP_temperature;BMP_pressure;BME280_temperature;BME280_humidity;BME280_pressure;Samples;Min_cycle;Max_cycle;Signal;HPM_P1;HPM_P2
2021/08/29 00:01:44;;;;;;;5.67;3.33;;;15.70;99.90;;;;;;5092631;28;20215;-60
2021/08/29 00:04:11;;;;;;;4.13;3.13;;;15.70;99.90;;;;;;5092169;28;20232;-60
2021/08/29 00:06:38;;;;;;;3.93;3.40;;;15.70;99.90;;;;;;5092608;28;20258;-60
2021/08/29 00:09:05;;;;;;;4.07;3.60;;;15.70;99.90;;;;;;5092220;28;20215;-60
2021/08/29 00:11:32;;;;;;;5.13;3.63;;;15.70;99.90;;;;;;5092355;28;20204;-60
2021/08/29 00:14:00;;;;;;;3.80;3.40;;;15.70;99.90;;;;;;5092125;28;20228;-60
2021/08/29 00:16:27;;;;;;;4.03;3.63;;;15.80;99.90;;;;;;5091963;28;20228;-60
2021/08/29 00:18:54;;;;;;;3.83;3.47;;;15.80;99.90;;;;;;5092107;28;20250;-60
2021/08/29 00:21:20;;;;;;;4.93;3.47;;;15.90;99.90;;;;;;5092342;28;20273;-60
2021/08/29 00:23:47;;;;;;;3.70;3.40;;;15.90;99.90;;;;;;5091921;28;20229;-60
2021/08/29 00:26:14;;;;;;;4.20;3.43;;;15.90;99.90;;;;;;5092050;28;20381;-60
2021/08/29 00:28:41;;;;;;;6.50;3.87;;;15.90;99.90;;;;;;5092082;28;20250;-61
2021/08/29 00:31:09;;;;;;;5.93;3.90;;;15.90;99.90;;;;;;5091784;28;20667;-61
2021/08/29 00:33:35;;;;;;;4.60;3.80;;;15.90;99.90;;;;;;5091912;28;20227;-60
2021/08/29 00:36:02;;;;;;;4.10;3.70;;;15.90;99.90;;;;;;5092174;28;20220;-59
2021/08/29 00:38:29;;;;;;;5.73;4.63;;;16.00;99.90;;;;;;5091865;28;20200;-59
2021/08/29 00:40:56;;;;;;;4.97;4.07;;;16.00;99.90;;;;;;5091863;28;20208;-59
2021/08/29 00:43:23;;;;;;;6.60;4.20;;;16.00;99.90;;;;;;5091451;28;20236;-60
2021/08/29 00:45:51;;;;;;;6.53;4.20;;;16.10;99.90;;;;;;5091564;28;20204;-60
2021/08/29 00:48:19;;;;;;;6.80;4.10;;;16.10;99.90;;;;;;5091525;28;20200;-60
2021/08/29 00:50:46;;;;;;;5.03;3.87;;;16.10;99.90;;;;;;5091699;28;20204;-60
2021/08/29 00:53:15;;;;;;;4.23;3.83;;;16.10;99.90;;;;;;5091492;28;20232;-60
2021/08/29 00:55:42;;;;;;;6.30;3.90;;;16.10;99.90;;;;;;5091259;28;20241;-60
2021/08/29 00:58:08;;;;;;;6.37;4.47;;;16.20;99.90;;;;;;5091323;28;20227;-61
2021/08/29 01:00:38;;;;;;;6.17;4.70;;;16.20;99.90;;;;;;5091682;28;20231;-60
2021/08/29 01:03:05;;;;;;;5.87;5.03;;;16.10;99.90;;;;;;5091517;28;20272;-60
2021/08/29 01:05:40;;;;;;;7.67;4.53;;;16.20;99.90;;;;;;5091333;28;20200;-60
2021/08/29 01:08:11;;;;;;;5.70;4.57;;;16.20;99.90;;;;;;5091340;28;20258;-60
2021/08/29 01:10:42;;;;;;;5.07;4.57;;;16.20;99.90;;;;;;5091299;28;20204;-60
2021/08/29 01:13:10;;;;;;;4.77;4.27;;;16.20;99.90;;;;;;5091051;28;20638;-60
2021/08/29 01:15:38;;;;;;;5.40;4.77;;;16.20;99.90;;;;;;5091145;28;20320;-60
2021/08/29 01:18:06;;;;;;;4.60;4.20;;;16.10;99.90;;;;;;5091231;28;20204;-60
2021/08/29 01:20:44;;;;;;;5.70;4.40;;;16.10;99.90;;;;;;5091045;28;20215;-60
2021/08/29 01:23:12;;;;;;;6.90;4.50;;;16.10;99.90;;;;;;5091199;28;20231;-61
2021/08/29 01:25:45;;;;;;;6.03;4.63;;;16.00;99.90;;;;;;5090811;28;20204;-60
2021/08/29 01:28:15;;;;;;;5.77;5.13;;;16.10;99.90;;;;;;5091091;28;20290;-60
2021/08/29 01:30:45;;;;;;;9.13;4.97;;;16.10;99.90;;;;;;5091049;28;20211;-60
2021/08/29 01:33:14;;;;;;;5.90;4.50;;;16.10;99.90;;;;;;5090946;28;20235;-60
2021/08/29 01:35:42;;;;;;;6.67;4.87;;;16.10;99.90;;;;;;5090685;28;20549;-60
2021/08/29 01:38:10;;;;;;;5.37;4.83;;;16.10;99.90;;;;;;5090932;28;20211;-60
2021/08/29 01:40:38;;;;;;;7.33;5.23;;;16.10;99.90;;;;;;5091035;28;20209;-60
2021/08/29 01:43:05;;;;;;;5.87;4.90;;;16.10;99.90;;;;;;5090740;28;20207;-60
2021/08/29 01:45:34;;;;;;;7.47;4.87;;;16.10;99.90;;;;;;5090587;28;20667;-60
2021/08/29 01:48:03;;;;;;;5.53;4.93;;;16.10;99.90;;;;;;5090629;28;20204;-60
2021/08/29 01:50:30;;;;;;;6.43;5.03;;;16.10;99.90;;;;;;5090552;28;20200;-60
2021/08/29 01:52:57;;;;;;;7.30;4.53;;;16.10;99.90;;;;;;5090740;28;20602;-60
2021/08/29 01:55:23;;;;;;;7.53;5.07;;;16.10;99.90;;;;;;5091002;28;20228;-59
2021/08/29 01:57:50;;;;;;;7.27;5.20;;;16.10;99.90;;;;;;5090709;28;20234;-60
2021/08/29 02:00:18;;;;;;;6.17;5.57;;;16.00;99.90;;;;;;5094094;28;20200;-60
2021/08/29 02:02:45;;;;;;;5.70;5.10;;;16.10;99.90;;;;;;5094876;28;20208;-60
2021/08/29 02:05:13;;;;;;;6.47;5.00;;;16.10;99.90;;;;;;5094408;28;20227;-60
2021/08/29 02:07:44;;;;;;;5.83;5.23;;;16.10;99.90;;;;;;5094836;28;20204;-60
2021/08/29 02:10:14;;;;;;;6.70;5.00;;;16.10;99.90;;;;;;5094821;28;20214;-60
2021/08/29 02:12:46;;;;;;;6.43;5.23;;;16.10;99.90;;;;;;5094650;28;20230;-60
2021/08/29 02:15:16;;;;;;;7.23;4.93;;;16.10;99.90;;;;;;5094403;28;20665;-60
2021/08/29 02:17:43;;;;;;;6.17;5.03;;;16.10;99.90;;;;;;5094725;28;20192;-60
2021/08/29 02:20:17;;;;;;;7.00;5.20;;;16.10;99.90;;;;;;5094680;28;20208;-59
2021/08/29 02:22:44;;;;;;;6.50;4.80;;;16.10;99.90;;;;;;5094403;28;20688;-61
2021/08/29 02:25:12;;;;;;;6.77;4.90;;;16.10;99.90;;;;;;5094433;28;20231;-60
2021/08/29 02:27:41;;;;;;;6.53;5.30;;;16.00;99.90;;;;;;5094306;28;20216;-60
2021/08/29 02:30:09;;;;;;;6.37;5.10;;;16.00;99.90;;;;;;5094096;28;20627;-60
2021/08/29 02:32:37;;;;;;;7.10;5.00;;;16.00;99.90;;;;;;5094502;28;20242;-60
2021/08/29 02:35:05;;;;;;;7.90;5.73;;;15.90;99.90;;;;;;5093971;28;20236;-60
2021/08/29 02:37:34;;;;;;;5.43;4.90;;;15.90;99.90;;;;;;5093982;28;20722;-60
2021/08/29 02:40:02;;;;;;;5.60;5.07;;;15.90;99.90;;;;;;5094047;28;20204;-59
2021/08/29 02:42:30;;;;;;;7.90;5.27;;;15.90;99.90;;;;;;5093795;28;20215;-60
2021/08/29 02:44:58;;;;;;;6.57;5.40;;;16.00;99.90;;;;;;5093661;28;20289;-59
2021/08/29 02:47:25;;;;;;;5.53;4.93;;;16.00;99.90;;;;;;5094027;28;20204;-60
2021/08/29 02:49:52;;;;;;;6.90;5.40;;;15.90;99.90;;;;;;5093799;28;20212;-60
2021/08/29 02:52:21;;;;;;;8.00;5.43;;;15.90;99.90;;;;;;5093895;28;20204;-59
2021/08/29 02:54:50;;;;;;;6.43;5.50;;;15.90;99.90;;;;;;5093554;28;20232;-59
2021/08/29 02:57:18;;;;;;;5.73;5.13;;;15.80;99.90;;;;;;5093528;28;20722;-60
2021/08/29 02:59:46;;;;;;;6.47;5.40;;;15.80;99.90;;;;;;5093531;28;20686;-60
2021/08/29 03:02:13;;;;;;;6.83;5.63;;;15.70;99.90;;;;;;5093506;28;20588;-60
2021/08/29 03:04:40;;;;;;;5.90;5.30;;;15.80;99.90;;;;;;5093575;28;20231;-60
2021/08/29 03:07:08;;;;;;;7.47;5.87;;;15.80;99.90;;;;;;5093608;28;20208;-60
2021/08/29 03:09:35;;;;;;;6.17;5.27;;;15.70;99.90;;;;;;5093391;28;20238;-60
2021/08/29 03:12:05;;;;;;;7.30;5.27;;;15.80;99.90;;;;;;5093592;28;20262;-60
2021/08/29 03:14:33;;;;;;;8.23;5.67;;;15.80;99.90;;;;;;5093353;28;20224;-60
2021/08/29 03:17:01;;;;;;;6.17;5.57;;;15.80;99.90;;;;;;5093663;28;20228;-60
2021/08/29 03:19:28;;;;;;;7.00;5.73;;;15.80;99.90;;;;;;5093449;28;20209;-60
2021/08/29 03:21:55;;;;;;;6.97;5.90;;;15.80;99.90;;;;;;5093664;28;20292;-60
2021/08/29 03:24:22;;;;;;;7.80;6.00;;;15.80;99.90;;;;;;5093499;28;20293;-60
2021/08/29 03:26:49;;;;;;;6.93;5.73;;;15.70;99.90;;;;;;5093459;28;20200;-60
2021/08/29 03:29:18;;;;;;;6.13;5.53;;;15.80;99.90;;;;;;5093182;28;20212;-60
2021/08/29 03:31:45;;;;;;;6.70;5.53;;;15.80;99.90;;;;;;5093278;28;20208;-60
2021/08/29 03:34:14;;;;;;;6.20;5.60;;;15.80;99.90;;;;;;5092944;28;20228;-60
2021/08/29 03:36:42;;;;;;;6.80;5.57;;;15.80;99.90;;;;;;5093085;28;20700;-60
2021/08/29 03:39:10;;;;;;;6.53;5.77;;;15.80;99.90;;;;;;5093083;28;20204;-61
2021/08/29 03:41:39;;;;;;;7.53;6.00;;;15.80;99.90;;;;;;5093000;28;20207;-61
2021/08/29 03:44:07;;;;;;;7.47;6.10;;;15.80;99.90;;;;;;5093107;28;20727;-61
2021/08/29 03:46:36;;;;;;;8.00;6.20;;;15.80;99.90;;;;;;5092722;28;20212;-61
2021/08/29 03:49:03;;;;;;;7.93;6.23;;;15.90;99.90;;;;;;5092729;28;20326;-59
2021/08/29 03:51:32;;;;;;;8.83;6.27;;;15.90;99.90;;;;;;5092664;28;20211;-59
2021/08/29 03:53:59;;;;;;;6.60;5.73;;;15.90;99.90;;;;;;5092552;28;20224;-59
2021/08/29 03:56:28;;;;;;;7.93;6.00;;;15.90;99.90;;;;;;5092513;28;20228;-60
2021/08/29 03:58:55;;;;;;;7.43;5.77;;;15.90;99.90;;;;;;5092470;28;20590;-59
2021/08/29 04:01:22;;;;;;;7.37;5.80;;;15.90;99.90;;;;;;5092463;28;20212;-60
2021/08/29 04:03:50;;;;;;;8.13;5.43;;;15.90;99.90;;;;;;5092262;28;20231;-60
2021/08/29 04:06:18;;;;;;;6.43;5.50;;;15.90;99.90;;;;;;5092494;28;20305;-60
2021/08/29 04:08:49;;;;;;;5.93;5.07;;;15.90;99.90;;;;;;5092368;28;20204;-60
2021/08/29 04:11:18;;;;;;;5.57;5.03;;;15.90;99.90;;;;;;5092396;28;20212;-60
2021/08/29 04:13:45;;;;;;;7.37;5.30;;;15.90;99.90;;;;;;5092060;28;20296;-60
2021/08/29 04:16:12;;;;;;;6.70;5.60;;;15.90;99.90;;;;;;5091995;28;20228;-60
2021/08/29 04:18:42;;;;;;;8.67;6.10;;;15.80;99.90;;;;;;5092214;28;20357;-60
2021/08/29 04:21:12;;;;;;;7.20;5.93;;;15.80;99.90;;;;;;5091888;28;20209;-61
2021/08/29 04:23:39;;;;;;;7.10;5.93;;;15.80;99.90;;;;;;5091801;28;20231;-60
2021/08/29 04:26:06;;;;;;;7.03;6.20;;;15.70;99.90;;;;;;5091974;28;20212;-60
2021/08/29 04:28:33;;;;;;;7.67;5.80;;;15.70;99.90;;;;;;5091834;28;20237;-61
2021/08/29 04:31:02;;;;;;;7.10;5.63;;;15.70;99.90;;;;;;5091742;28;20211;-60
2021/08/29 04:33:29;;;;;;;7.63;5.90;;;15.60;99.90;;;;;;5091736;28;20252;-60
2021/08/29 04:35:56;;;;;;;6.13;5.53;;;15.60;99.90;;;;;;5091693;28;20212;-59
2021/08/29 04:38:24;;;;;;;8.50;5.70;;;15.50;99.90;;;;;;5091740;28;20208;-61
2021/08/29 04:40:51;;;;;;;7.40;5.33;;;15.50;99.90;;;;;;5091857;28;20208;-61
2021/08/29 04:43:17;;;;;;;7.37;5.73;;;15.50;99.90;;;;;;5091757;28;20262;-61
2021/08/29 04:45:44;;;;;;;6.53;5.50;;;15.40;99.90;;;;;;5091598;28;20211;-61
2021/08/29 04:48:11;;;;;;;6.80;5.47;;;15.50;99.90;;;;;;5091690;28;20683;-60
2021/08/29 04:50:38;;;;;;;6.20;5.37;;;15.40;99.90;;;;;;5092009;28;20590;-61
2021/08/29 04:53:04;;;;;;;6.90;5.60;;;15.50;99.90;;;;;;5091594;28;20227;-60
2021/08/29 04:55:32;;;;;;;6.93;5.63;;;15.40;99.90;;;;;;5091335;28;20204;-60
2021/08/29 04:57:59;;;;;;;6.73;6.03;;;15.50;99.90;;;;;;5091591;28;20224;-61
2021/08/29 05:00:26;;;;;;;6.90;5.83;;;15.50;99.90;;;;;;5091684;28;20594;-61
2021/08/29 05:02:53;;;;;;;6.20;5.03;;;15.50;99.90;;;;;;5091507;28;20450;-61
2021/08/29 05:05:20;;;;;;;7.37;5.60;;;15.50;99.90;;;;;;5091199;28;20200;-61
2021/08/29 05:07:46;;;;;;;6.57;5.33;;;15.60;99.90;;;;;;5091282;28;20258;-61
2021/08/29 05:10:13;;;;;;;5.87;5.17;;;15.60;99.90;;;;;;5091440;28;20208;-61
2021/08/29 05:12:41;;;;;;;5.60;5.00;;;15.60;99.90;;;;;;5091526;28;20443;-61
2021/08/29 05:15:09;;;;;;;5.43;4.93;;;15.60;99.90;;;;;;5091300;28;20220;-60
2021/08/29 05:17:36;;;;;;;6.30;5.07;;;15.60;99.90;;;;;;5091466;28;20251;-61
2021/08/29 05:20:02;;;;;;;5.83;4.83;;;15.60;99.90;;;;;;5091582;28;20208;-60
2021/08/29 05:22:29;;;;;;;6.23;5.63;;;15.70;99.90;;;;;;5091341;28;20230;-60
2021/08/29 05:24:56;;;;;;;7.60;5.13;;;15.70;99.90;;;;;;5090709;28;20236;-61
2021/08/29 05:27:22;;;;;;;5.67;4.50;;;15.70;99.90;;;;;;5091178;28;20201;-60
2021/08/29 05:29:50;;;;;;;7.10;5.97;;;15.80;99.90;;;;;;5090706;28;20209;-60
2021/08/29 05:32:17;;;;;;;4.90;4.43;;;15.80;99.90;;;;;;5090880;28;20212;-60
2021/08/29 05:34:44;;;;;;;6.37;5.17;;;15.80;99.90;;;;;;5089884;28;20281;-60
2021/08/29 05:37:10;;;;;;;4.73;4.23;;;15.80;99.90;;;;;;5090733;28;20270;-60
2021/08/29 05:39:37;;;;;;;4.50;3.90;;;15.80;99.90;;;;;;5090903;28;20200;-61
2021/08/29 05:42:04;;;;;;;5.53;4.27;;;15.90;99.90;;;;;;5091170;28;20261;-60
2021/08/29 05:44:31;;;;;;;4.20;3.80;;;15.80;99.90;;;;;;5090783;28;20236;-60
2021/08/29 05:46:59;;;;;;;4.30;3.90;;;15.90;99.90;;;;;;5091463;28;20656;-61
2021/08/29 05:49:26;;;;;;;4.80;4.03;;;15.90;99.90;;;;;;5091262;28;20205;-61
2021/08/29 05:51:53;;;;;;;5.23;3.80;;;16.00;99.90;;;;;;5091100;28;20677;-61
2021/08/29 05:54:19;;;;;;;9.83;5.93;;;16.00;99.90;;;;;;5090618;28;20227;-60
2021/08/29 05:56:46;;;;;;;4.10;3.63;;;16.10;99.90;;;;;;5090804;28;20232;-60
2021/08/29 05:59:13;;;;;;;4.77;4.13;;;16.10;99.90;;;;;;5090598;28;20208;-61
2021/08/29 06:01:40;;;;;;;5.20;4.23;;;16.10;99.90;;;;;;5090715;28;20650;-61
2021/08/29 06:04:08;;;;;;;5.93;3.33;;;16.10;99.90;;;;;;5090461;28;20723;-61
2021/08/29 06:06:34;;;;;;;3.60;3.30;;;16.10;99.90;;;;;;5090532;28;20204;-60
2021/08/29 06:09:02;;;;;;;4.07;3.53;;;16.20;99.90;;;;;;5090843;28;20236;-61
2021/08/29 06:11:28;;;;;;;5.00;4.47;;;16.20;99.90;;;;;;5090765;28;20204;-60
2021/08/29 06:13:56;;;;;;;4.13;3.73;;;16.10;99.90;;;;;;5091162;28;20228;-60
2021/08/29 06:16:23;;;;;;;3.33;3.03;;;16.20;99.90;;;;;;5091748;28;20200;-60
2021/08/29 06:18:50;;;;;;;5.87;4.67;;;16.10;99.90;;;;;;5090712;28;20326;-60
2021/08/29 06:21:18;;;;;;;3.63;3.33;;;16.10;99.90;;;;;;5091916;28;20228;-61
2021/08/29 06:23:45;;;;;;;5.10;4.57;;;16.10;99.90;;;;;;5091281;28;20232;-60
2021/08/29 06:26:12;;;;;;;3.13;2.83;;;16.10;99.90;;;;;;5091000;28;20204;-61
2021/08/29 06:28:38;;;;;;;3.83;2.83;;;16.20;99.90;;;;;;5090531;28;20208;-61
2021/08/29 06:31:05;;;;;;;3.30;2.97;;;16.30;99.90;;;;;;5090780;28;20204;-61
2021/08/29 06:33:32;;;;;;;3.10;2.80;;;16.30;99.90;;;;;;5090342;28;20251;-60
2021/08/29 06:35:59;;;;;;;2.83;2.43;;;16.50;99.90;;;;;;5090391;28;20521;-60
2021/08/29 06:38:27;;;;;;;3.10;2.80;;;16.60;99.90;;;;;;5090358;28;20224;-60
2021/08/29 06:40:53;;;;;;;3.77;3.30;;;16.70;99.90;;;;;;5091139;28;20200;-60
2021/08/29 06:43:20;;;;;;;3.00;2.70;;;16.70;99.90;;;;;;5090735;28;20258;-60
2021/08/29 06:45:47;;;;;;;3.43;2.63;;;16.70;99.90;;;;;;5092843;28;20213;-60
2021/08/29 06:48:13;;;;;;;2.47;2.27;;;16.80;99.90;;;;;;5094066;28;20595;-60
2021/08/29 06:50:40;;;;;;;3.03;2.73;;;16.80;99.90;;;;;;5093925;28;20212;-60
2021/08/29 06:53:07;;;;;;;4.97;4.33;;;16.90;99.90;;;;;;5094041;28;20235;-61
2021/08/29 06:55:35;;;;;;;3.90;3.20;;;16.80;99.90;;;;;;5093972;28;20211;-61
2021/08/29 06:58:01;;;;;;;4.77;3.93;;;16.80;99.90;;;;;;5093624;28;20695;-61
2021/08/29 07:00:28;;;;;;;2.73;2.50;;;16.80;99.90;;;;;;5093804;28;20211;-61
2021/08/29 07:02:55;;;;;;;3.23;2.93;;;16.80;99.90;;;;;;5093654;28;20211;-64
2021/08/29 07:05:22;;;;;;;2.20;2.00;;;16.80;99.90;;;;;;5094554;28;20231;-66
2021/08/29 07:07:48;;;;;;;2.65;2.45;;;16.90;99.90;;;;;;5093764;28;20200;-66
2021/08/29 07:10:15;;;;;;;3.00;2.70;;;17.00;99.90;;;;;;5093590;28;20211;-64
2021/08/29 07:12:43;;;;;;;3.75;3.25;;;17.10;99.90;;;;;;5093518;28;20212;-63
2021/08/29 07:15:10;;;;;;;2.83;2.22;;;17.30;99.90;;;;;;5093329;28;20253;-62
2021/08/29 07:17:37;;;;;;;3.07;2.03;;;17.40;99.90;;;;;;5093195;28;20232;-61
2021/08/29 07:20:04;;;;;;;4.85;2.33;;;17.60;99.90;;;;;;5093481;28;20208;-60
2021/08/29 07:22:31;;;;;;;3.13;2.60;;;17.80;99.90;;;;;;5093274;28;20759;-60
2021/08/29 07:24:57;;;;;;;5.60;4.40;;;18.00;99.90;;;;;;5093195;28;20232;-61
2021/08/29 07:27:24;;;;;;;3.08;2.58;;;18.30;99.90;;;;;;5093286;28;20196;-61
2021/08/29 07:29:52;;;;;;;3.03;2.55;;;18.50;99.90;;;;;;5093061;28;20709;-61
2021/08/29 07:32:19;;;;;;;2.03;1.83;;;18.70;99.90;;;;;;5092990;28;20208;-60
2021/08/29 07:34:45;;;;;;;1.65;1.55;;;18.80;99.90;;;;;;5093044;28;20224;-60
2021/08/29 07:37:12;;;;;;;4.03;3.25;;;18.90;99.90;;;;;;5092762;28;20227;-61
2021/08/29 07:39:39;;;;;;;1.50;1.40;;;19.10;99.90;;;;;;5092957;28;20586;-61
2021/08/29 07:42:06;;;;;;;2.65;2.08;;;19.20;99.90;;;;;;5092991;28;20211;-60
2021/08/29 07:44:32;;;;;;;2.40;2.03;;;19.20;99.90;;;;;;5092704;28;20239;-61
2021/08/29 07:47:00;;;;;;;1.15;1.05;;;19.30;99.90;;;;;;5093018;28;20204;-61
2021/08/29 07:49:27;;;;;;;1.35;1.25;;;19.20;99.90;;;;;;5092814;28;20211;-60
2021/08/29 07:51:54;;;;;;;1.40;1.27;;;19.00;99.90;;;;;;5092895;28;20215;-60
2021/08/29 07:54:20;;;;;;;1.60;1.10;;;18.90;99.90;;;;;;5092532;28;20231;-59
2021/08/29 07:56:47;;;;;;;1.30;1.20;;;18.90;99.90;;;;;;5091519;28;20213;-61
2021/08/29 07:59:14;;;;;;;2.58;2.10;;;19.00;99.90;;;;;;5092343;28;20734;-61
2021/08/29 08:01:40;;;;;;;1.58;1.40;;;19.10;99.90;;;;;;5092678;28;20205;-62
2021/08/29 08:04:08;;;;;;;1.20;0.90;;;19.10;99.90;;;;;;5092173;28;20231;-60
2021/08/29 08:06:35;;;;;;;1.88;1.30;;;19.20;99.90;;;;;;5092390;28;20215;-59
2021/08/29 08:09:02;;;;;;;1.55;1.40;;;19.20;99.90;;;;;;5092246;28;20286;-61
2021/08/29 08:11:28;;;;;;;1.52;1.10;;;19.40;99.90;;;;;;5092126;28;20207;-59
2021/08/29 08:13:55;;;;;;;1.23;1.13;;;19.40;99.90;;;;;;5091932;28;20221;-60
2021/08/29 08:16:22;;;;;;;1.17;1.08;;;19.60;99.90;;;;;;5092195;28;20704;-60
2021/08/29 08:18:48;;;;;;;1.75;1.20;;;19.70;99.90;;;;;;5091803;28;20704;-59
2021/08/29 08:21:18;;;;;;;0.90;0.80;;;19.70;99.90;;;;;;5092087;28;20568;-60
2021/08/29 08:23:44;;;;;;;1.63;1.45;;;19.70;99.90;;;;;;5091793;28;20230;-60
2021/08/29 08:26:11;;;;;;;1.40;1.30;;;19.50;99.90;;;;;;5091931;28;20590;-60
2021/08/29 08:28:38;;;;;;;1.05;0.60;;;19.20;99.90;;;;;;5091761;28;20204;-59
2021/08/29 08:31:04;;;;;;;0.73;0.73;;;19.20;99.90;;;;;;5092044;28;20208;-59
2021/08/29 08:33:31;;;;;;;0.63;0.63;;;19.00;99.90;;;;;;5092255;28;20235;-59
2021/08/29 08:35:58;;;;;;;1.20;1.10;;;19.10;99.90;;;;;;5091901;28;20694;-60
2021/08/29 08:38:26;;;;;;;0.50;0.50;;;19.10;99.90;;;;;;5091690;28;20224;-60
2021/08/29 08:40:54;;;;;;;0.82;0.60;;;19.20;99.90;;;;;;5091768;28;20204;-60
2021/08/29 08:43:21;;;;;;;0.60;0.60;;;19.40;99.90;;;;;;5091739;28;20247;-60
2021/08/29 08:45:48;;;;;;;0.50;0.50;;;19.70;99.90;;;;;;5091641;28;20219;-60
2021/08/29 08:48:15;;;;;;;2.33;0.60;;;19.90;99.90;;;;;;5091872;28;20209;-60
2021/08/29 08:50:46;;;;;;;0.80;0.80;;;20.00;99.90;;;;;;5091725;28;20215;-60
2021/08/29 08:53:17;;;;;;;0.60;0.60;;;20.10;99.90;;;;;;5091653;28;20758;-60
2021/08/29 08:55:47;;;;;;;0.90;0.68;;;20.30;99.90;;;;;;5091807;28;20204;-60
2021/08/29 08:58:15;;;;;;;0.75;0.43;;;20.60;99.90;;;;;;5091681;28;20255;-60
2021/08/29 09:00:44;;;;;;;1.17;0.60;;;20.90;99.90;;;;;;5091803;28;20281;-61
2021/08/29 09:03:11;;;;;;;0.47;0.47;;;21.20;99.90;;;;;;5091226;28;20645;-61
2021/08/29 09:05:38;;;;;;;0.45;0.38;;;21.40;99.90;;;;;;5091238;28;20227;-61
2021/08/29 09:08:06;;;;;;;0.52;0.52;;;21.40;99.90;;;;;;5091030;28;20576;-61
2021/08/29 09:10:33;;;;;;;0.50;0.30;;;21.40;99.90;;;;;;5091333;28;20587;-61
2021/08/29 09:13:03;;;;;;;0.68;0.50;;;21.50;99.90;;;;;;5091230;28;20215;-61
2021/08/29 09:15:30;;;;;;;0.25;0.25;;;21.60;99.90;;;;;;5091264;28;20204;-61
2021/08/29 09:17:58;;;;;;;0.75;0.45;;;21.60;99.90;;;;;;5090780;28;20247;-59
2021/08/29 09:20:26;;;;;;;0.50;0.50;;;21.50;99.90;;;;;;5090975;28;20219;-60
2021/08/29 09:22:54;;;;;;;0.40;0.30;;;21.50;99.90;;;;;;5083661;28;20212;-60
2021/08/29 09:25:23;;;;;;;1.15;0.50;;;21.30;99.90;;;;;;5070545;28;20211;-60
2021/08/29 09:27:52;;;;;;;0.50;0.50;;;21.10;99.90;;;;;;5071202;28;20594;-60
2021/08/29 09:30:22;;;;;;;0.52;0.40;;;21.40;99.90;;;;;;5070876;28;20231;-62
2021/08/29 09:32:51;;;;;;;0.60;0.50;;;21.60;99.90;;;;;;5070241;28;20212;-61
2021/08/29 09:35:18;;;;;;;0.50;0.47;;;21.90;99.90;;;;;;5070446;28;20229;-63
2021/08/29 09:37:45;;;;;;;0.40;0.40;;;21.90;99.90;;;;;;5070919;28;20253;-62
2021/08/29 09:40:17;;;;;;;0.60;0.50;;;22.00;99.90;;;;;;5070658;28;20562;-62
2021/08/29 09:42:46;;;;;;;1.08;0.90;;;22.30;99.90;;;;;;5070568;28;20205;-61
2021/08/29 09:45:25;;;;;;;0.88;0.70;;;22.50;99.90;;;;;;5108503;22;20243;-62
2021/08/29 09:47:53;;;;;;;0.50;0.50;;;22.50;99.90;;;;;;5091581;28;20215;-58
2021/08/29 09:50:22;;;;;;;0.30;0.30;;;22.50;99.90;;;;;;5091207;28;20694;-59
2021/08/29 09:52:49;;;;;;;0.50;0.50;;;22.40;99.90;;;;;;5091338;28;20211;-62
2021/08/29 09:55:28;;;;;;;2.60;0.60;;;22.30;99.90;;;;;;5091429;28;20258;-63
2021/08/29 09:57:56;;;;;;;0.60;0.60;;;22.20;99.90;;;;;;5090919;28;20232;-61
2021/08/29 10:00:24;;;;;;;1.42;0.60;;;22.00;99.90;;;;;;5091117;28;20204;-60
2021/08/29 10:03:03;;;;;;;0.60;0.60;;;21.70;99.90;;;;;;5091239;28;20216;-63
2021/08/29 10:05:29;;;;;;;0.90;0.80;;;21.60;99.90;;;;;;5090725;28;20710;-59
2021/08/29 10:07:58;;;;;;;0.63;0.50;;;21.40;99.90;;;;;;5091132;28;20239;-59
2021/08/29 10:10:27;;;;;;;0.88;0.80;;;21.10;99.90;;;;;;5091114;28;20209;-60
2021/08/29 10:12:55;;;;;;;1.00;0.90;;;20.90;99.90;;;;;;5091063;28;20208;-63
2021/08/29 10:15:23;;;;;;;0.40;0.40;;;20.70;99.90;;;;;;5091339;28;20220;-61
2021/08/29 10:17:52;;;;;;;1.33;1.23;;;20.70;99.90;;;;;;5090836;28;20228;-64
2021/08/29 10:20:21;;;;;;;0.52;0.50;;;20.40;99.90;;;;;;5093180;28;20215;-61
2021/08/29 10:22:49;;;;;;;0.50;0.50;;;20.50;99.90;;;;;;5095213;28;20298;-61
2021/08/29 10:25:18;;;;;;;0.63;0.60;;;20.40;99.90;;;;;;5094826;28;20263;-62
2021/08/29 10:27:46;;;;;;;0.70;0.60;;;20.40;99.90;;;;;;5095117;28;20203;-61
2021/08/29 10:30:14;;;;;;;1.33;0.55;;;20.30;99.90;;;;;;5094713;28;20236;-60
2021/08/29 10:32:45;;;;;;;0.40;0.40;;;20.20;99.90;;;;;;5094898;28;20231;-61
2021/08/29 10:35:14;;;;;;;0.47;0.40;;;20.30;99.90;;;;;;5094150;28;20368;-60
2021/08/29 10:37:43;;;;;;;0.77;0.52;;;20.40;99.90;;;;;;5094409;28;20208;-61
2021/08/29 10:40:12;;;;;;;0.52;0.40;;;20.30;99.90;;;;;;5094626;28;20227;-62
2021/08/29 10:42:41;;;;;;;0.85;0.73;;;20.30;99.90;;;;;;5094418;28;20566;-60
2021/08/29 10:45:09;;;;;;;0.75;0.60;;;20.50;99.90;;;;;;5094041;28;20240;-62
2021/08/29 10:47:38;;;;;;;0.40;0.30;;;20.50;99.90;;;;;;5094156;28;20660;-62
2021/08/29 10:50:08;;;;;;;0.30;0.30;;;20.60;99.90;;;;;;5094567;28;20201;-62
2021/08/29 10:52:38;;;;;;;0.43;0.43;;;20.60;99.90;;;;;;5094519;28;20208;-62
2021/08/29 10:55:07;;;;;;;0.30;0.30;;;20.60;99.90;;;;;;5094076;28;20773;-62
2021/08/29 10:57:35;;;;;;;0.45;0.35;;;20.70;99.90;;;;;;5094300;28;20230;-63
2021/08/29 11:00:08;;;;;;;0.45;0.45;;;20.60;99.90;;;;;;5094137;28;20224;-62
2021/08/29 11:02:37;;;;;;;0.85;0.38;;;20.70;99.90;;;;;;5094078;28;20550;-62
2021/08/29 11:05:04;;;;;;;1.13;0.70;;;20.90;99.90;;;;;;5093477;28;20237;-61
2021/08/29 11:07:52;;;;;;;1.17;0.63;;;21.10;99.90;;;;;;5094034;28;20216;-61
2021/08/29 11:10:48;;;;;;;0.55;0.30;;;21.20;99.90;;;;;;5093061;28;20300;-61
2021/08/29 11:13:42;;;;;;;0.30;0.28;;;21.30;99.90;;;;;;5093837;28;20211;-61
2021/08/29 11:16:24;;;;;;;0.52;0.30;;;21.30;99.90;;;;;;5045927;28;20212;-62
2021/08/29 11:19:11;;;;;;;0.60;0.45;;;21.30;99.90;;;;;;5093658;28;20224;-62
2021/08/29 11:22:11;;;;;;;2.03;1.30;;;21.30;99.90;;;;;;5094013;28;20207;-61
2021/08/29 11:24:51;;;;;;;0.20;0.20;;;21.50;99.90;;;;;;5093438;28;20417;-61
2021/08/29 11:27:46;;;;;;;1.38;0.50;;;21.50;99.90;;;;;;5093437;28;20736;-63
2021/08/29 11:30:15;;;;;;;0.85;0.20;;;21.60;99.90;;;;;;5085447;28;20211;-61
2021/08/29 11:32:45;;;;;;;0.25;0.22;;;21.70;99.90;;;;;;5093507;28;20248;-63
2021/08/29 11:35:14;;;;;;;0.80;0.50;;;21.60;99.90;;;;;;5092949;28;20289;-61
2021/08/29 11:37:41;;;;;;;0.50;0.25;;;21.50;99.90;;;;;;5093272;28;20304;-62
2021/08/29 11:40:11;;;;;;;0.20;0.15;;;21.40;99.90;;;;;;5093275;28;20293;-61
2021/08/29 11:42:40;;;;;;;0.65;0.43;;;21.20;99.90;;;;;;5093014;28;20691;-61
2021/08/29 11:45:12;;;;;;;6.07;4.20;;;21.10;99.90;;;;;;5092896;28;20258;-61
2021/08/29 11:47:40;;;;;;;0.80;0.60;;;20.90;99.90;;;;;;5093262;28;20216;-62
2021/08/29 11:50:09;;;;;;;3.05;1.20;;;20.70;99.90;;;;;;5093254;28;20212;-61
2021/08/29 11:52:37;;;;;;;0.30;0.30;;;20.50;99.90;;;;;;5093080;28;20204;-62
2021/08/29 11:55:11;;;;;;;0.50;0.50;;;20.40;99.90;;;;;;5092845;28;20709;-61
2021/08/29 11:57:48;;;;;;;0.80;0.60;;;20.30;99.90;;;;;;5092934;28;20209;-61
2021/08/29 12:00:16;;;;;;;9.57;8.20;;;20.20;99.90;;;;;;5092727;28;20344;-60
2021/08/29 12:02:45;;;;;;;1.10;0.70;;;20.00;99.90;;;;;;5093100;28;20221;-62
2021/08/29 12:05:14;;;;;;;1.85;0.50;;;19.90;99.90;;;;;;5092318;28;20679;-61
2021/08/29 12:07:48;;;;;;;0.63;0.32;;;19.90;99.90;;;;;;5092963;28;20204;-63
2021/08/29 12:10:18;;;;;;;1.92;1.52;;;19.80;99.90;;;;;;5085281;28;20686;-62
2021/08/29 12:12:46;;;;;;;2.25;1.95;;;19.70;99.90;;;;;;5074573;28;20680;-61
2021/08/29 12:15:13;;;;;;;2.90;1.65;;;19.70;99.90;;;;;;5092404;28;20318;-61
2021/08/29 12:17:42;;;;;;;0.47;0.40;;;19.80;99.90;;;;;;5092535;28;20211;-61
2021/08/29 12:20:13;;;;;;;0.22;0.22;;;19.70;99.90;;;;;;5092691;28;20220;-63
2021/08/29 12:22:40;;;;;;;5.20;2.15;;;19.70;99.90;;;;;;5092697;28;20227;-61
2021/08/29 12:25:08;;;;;;;0.35;0.32;;;19.80;99.90;;;;;;5092548;28;20227;-60
2021/08/29 12:27:36;;;;;;;1.45;0.85;;;19.80;99.90;;;;;;5092177;28;20520;-61
2021/08/29 12:30:05;;;;;;;0.32;0.17;;;19.70;99.90;;;;;;5091902;28;20200;-63
2021/08/29 12:32:34;;;;;;;0.40;0.30;;;19.70;99.90;;;;;;5092286;28;20619;-62
2021/08/29 12:35:03;;;;;;;0.55;0.30;;;19.80;99.90;;;;;;5091753;28;20814;-61
2021/08/29 12:37:32;;;;;;;0.22;0.22;;;19.70;99.90;;;;;;5091579;28;20619;-62
2021/08/29 12:40:00;;;;;;;0.77;0.40;;;19.60;99.90;;;;;;5090058;28;20224;-62
2021/08/29 12:42:29;;;;;;;0.65;0.30;;;19.40;99.90;;;;;;5090602;28;20306;-60
2021/08/29 12:44:58;;;;;;;0.73;0.50;;;19.10;99.90;;;;;;5091649;28;20231;-62
2021/08/29 12:47:26;;;;;;;1.65;1.10;;;19.00;99.90;;;;;;5092282;28;20250;-62
2021/08/29 12:49:54;;;;;;;1.55;0.50;;;18.90;99.90;;;;;;5091633;28;20204;-62
2021/08/29 12:52:22;;;;;;;0.70;0.70;;;18.90;99.90;;;;;;5091267;28;20344;-61
2021/08/29 12:54:49;;;;;;;2.63;0.70;;;19.10;99.90;;;;;;5091408;28;20636;-62